Time;durP1;ratioP1;P1;durP2;ratioP2;P2;SDS_P1;SDS_P2;PMS_P1;PMS_P2;Temp;Humidity;BMP_temperature;BMP_pressure;BME280_temperature;BME280_humidity;BME280_pressure;Samples;Min_cycle;Max_cycle;Signal;HPM_P1;HPM_P2
2023/04/15 00:00:57;;;;;;;0.00;0.00;;;7.10;100.00;;;;;;5018281;28;20091;-78
2023/04/15 00:03:24;;;;;;;0.00;0.00;;;7.00;100.00;;;;;;5034965;28;20056;-78
2023/04/15 00:05:51;;;;;;;0.00;0.00;;;7.00;100.00;;;;;;5019387;28;20056;-78
2023/04/15 00:08:19;;;;;;;0.00;0.00;;;7.00;100.00;;;;;;5013336;28;20585;-78
2023/04/15 00:10:46;;;;;;;0.00;0.00;;;7.00;100.00;;;;;;5040748;28;20146;-78
2023/04/15 00:13:14;;;;;;;0.00;0.00;;;7.00;100.00;;;;;;5037922;28;20045;-78
2023/04/15 00:15:41;;;;;;;0.00;0.00;;;7.00;100.00;;;;;;5027506;28;20045;-78
2023/04/15 00:18:09;;;;;;;0.00;0.00;;;7.00;100.00;;;;;;5035555;28;20046;-78
2023/04/15 00:20:36;;;;;;;0.00;0.00;;;7.00;100.00;;;;;;5038420;28;20144;-77
2023/04/15 00:23:03;;;;;;;0.00;0.00;;;7.00;100.00;;;;;;5024126;28;20802;-77
2023/04/15 00:25:30;;;;;;;0.00;0.00;;;7.00;100.00;;;;;;5038273;28;20045;-78
2023/04/15 00:27:57;;;;;;;0.00;0.00;;;7.00;100.00;;;;;;5038386;28;20148;-78
2023/04/15 00:30:25;;;;;;;0.00;0.00;;;7.00;100.00;;;;;;5031887;28;20049;-78
2023/04/15 00:32:52;;;;;;;0.00;0.00;;;6.90;100.00;;;;;;5041868;28;20670;-77
2023/04/15 00:35:19;;;;;;;0.00;0.00;;;6.90;100.00;;;;;;5026312;28;20548;-77
2023/04/15 00:37:46;;;;;;;0.00;0.00;;;7.00;100.00;;;;;;5034602;28;20140;-77
2023/04/15 00:40:16;;;;;;;0.00;0.00;;;6.90;100.00;;;;;;5022643;28;20041;-77
2023/04/15 00:42:44;;;;;;;0.00;0.00;;;6.90;100.00;;;;;;5031033;28;20053;-77
2023/04/15 00:45:11;;;;;;;0.00;0.00;;;6.90;100.00;;;;;;5034906;28;20045;-77
2023/04/15 00:47:41;;;;;;;0.00;0.00;;;6.90;100.00;;;;;;5013380;28;20049;-77
2023/04/15 00:50:10;;;;;;;0.00;0.00;;;6.90;100.00;;;;;;5020440;28;20046;-77
2023/04/15 00:52:37;;;;;;;0.00;0.00;;;6.80;100.00;;;;;;5036857;28;20065;-77
2023/04/15 00:55:05;;;;;;;0.00;0.00;;;6.80;100.00;;;;;;5037365;28;20046;-77
2023/04/15 00:57:32;;;;;;;0.00;0.00;;;6.80;100.00;;;;;;5036294;28;20041;-78
2023/04/15 01:00:00;;;;;;;0.00;0.00;;;6.80;100.00;;;;;;5040613;28;20056;-77
2023/04/15 01:02:27;;;;;;;0.00;0.00;;;6.80;100.00;;;;;;5021783;28;20060;-78
2023/04/15 01:04:55;;;;;;;0.00;0.00;;;6.70;100.00;;;;;;5039725;28;20052;-77
2023/04/15 01:07:22;;;;;;;0.00;0.00;;;6.70;100.00;;;;;;5040286;28;20051;-78
2023/04/15 01:09:49;;;;;;;0.00;0.00;;;6.70;100.00;;;;;;5017647;28;20690;-78
2023/04/15 01:12:16;;;;;;;0.00;0.00;;;6.70;100.00;;;;;;5023792;28;20064;-78
2023/04/15 01:14:43;;;;;;;0.00;0.00;;;6.70;100.00;;;;;;5040455;28;20053;-77
2023/04/15 01:17:10;;;;;;;0.00;0.00;;;6.60;100.00;;;;;;5019473;28;20045;-77
2023/04/15 01:19:37;;;;;;;0.00;0.00;;;6.60;100.00;;;;;;5039346;28;20055;-77
2023/04/15 01:22:04;;;;;;;0.00;0.00;;;6.60;100.00;;;;;;5013633;28;20058;-77
2023/04/15 01:24:34;;;;;;;0.05;0.05;;;6.60;100.00;;;;;;5031184;28;20053;-77
2023/04/15 01:27:02;;;;;;;0.00;0.00;;;6.60;100.00;;;;;;5043301;28;20111;-77
2023/04/15 01:29:31;;;;;;;0.00;0.00;;;6.60;100.00;;;;;;5037306;28;20970;-77
2023/04/15 01:31:58;;;;;;;0.00;0.00;;;6.60;100.00;;;;;;5022667;28;20700;-77
2023/04/15 01:34:25;;;;;;;0.00;0.00;;;6.50;100.00;;;;;;5018209;28;20816;-77
2023/04/15 01:36:51;;;;;;;0.00;0.00;;;6.50;100.00;;;;;;5033934;28;20046;-77
2023/04/15 01:39:18;;;;;;;0.00;0.00;;;6.50;100.00;;;;;;5020301;28;20045;-78
2023/04/15 01:41:45;;;;;;;0.00;0.00;;;6.50;100.00;;;;;;5039511;28;20056;-78
2023/04/15 01:44:12;;;;;;;0.00;0.00;;;6.50;100.00;;;;;;5017861;28;20084;-77
2023/04/15 01:46:39;;;;;;;0.00;0.00;;;6.50;100.00;;;;;;5034876;28;20636;-77
2023/04/15 01:49:06;;;;;;;0.00;0.00;;;6.50;100.00;;;;;;5043168;28;20049;-78
2023/04/15 01:51:33;;;;;;;0.00;0.00;;;6.40;100.00;;;;;;5034020;28;20128;-77
2023/04/15 01:54:00;;;;;;;0.00;0.00;;;6.50;100.00;;;;;;5037886;28;20053;-77
2023/04/15 01:56:27;;;;;;;0.00;0.00;;;6.50;100.00;;;;;;5047860;28;20355;-77
2023/04/15 01:58:54;;;;;;;0.00;0.00;;;6.50;100.00;;;;;;5022375;28;20056;-77
2023/04/15 02:01:21;;;;;;;0.00;0.00;;;6.40;100.00;;;;;;5039871;28;20755;-78
2023/04/15 02:03:48;;;;;;;0.00;0.00;;;6.40;100.00;;;;;;5013378;28;20041;-77
2023/04/15 02:06:15;;;;;;;0.00;0.00;;;6.40;100.00;;;;;;5038332;28;20049;-77
2023/04/15 02:08:42;;;;;;;0.00;0.00;;;6.40;100.00;;;;;;5028174;28;20050;-78
2023/04/15 02:11:09;;;;;;;0.00;0.00;;;6.40;100.00;;;;;;5031397;28;20050;-77
2023/04/15 02:13:36;;;;;;;0.00;0.00;;;6.40;100.00;;;;;;5038530;28;20159;-77
2023/04/15 02:16:03;;;;;;;0.00;0.00;;;6.40;100.00;;;;;;5024818;28;20052;-77
2023/04/15 02:18:30;;;;;;;0.00;0.00;;;6.40;100.00;;;;;;5030832;28;20056;-77
2023/04/15 02:20:57;;;;;;;0.00;0.00;;;6.40;100.00;;;;;;5034120;28;21811;-77
2023/04/15 02:23:24;;;;;;;0.00;0.00;;;6.40;100.00;;;;;;5017766;28;20445;-76
2023/04/15 02:25:51;;;;;;;0.00;0.00;;;6.30;100.00;;;;;;5023999;28;20056;-77
2023/04/15 02:28:20;;;;;;;0.00;0.00;;;6.40;100.00;;;;;;5021548;28;20067;-77
2023/04/15 02:30:52;;;;;;;0.00;0.00;;;6.40;100.00;;;;;;5035784;28;20138;-77
2023/04/15 02:33:20;;;;;;;0.00;0.00;;;6.40;100.00;;;;;;5030180;28;20759;-78
2023/04/15 02:35:47;;;;;;;0.00;0.00;;;6.40;100.00;;;;;;5028437;28;20055;-77
2023/04/15 02:38:16;;;;;;;0.00;0.00;;;6.40;100.00;;;;;;5034117;28;20045;-78
2023/04/15 02:40:43;;;;;;;0.00;0.00;;;6.40;100.00;;;;;;5039280;28;20061;-78
2023/04/15 02:43:10;;;;;;;0.00;0.00;;;6.40;100.00;;;;;;5021040;28;20045;-77
2023/04/15 02:45:37;;;;;;;0.00;0.00;;;6.40;100.00;;;;;;5023385;28;20060;-77
2023/04/15 02:48:05;;;;;;;0.00;0.00;;;6.40;100.00;;;;;;5040576;28;20053;-77
2023/04/15 02:50:32;;;;;;;0.00;0.00;;;6.40;100.00;;;;;;5016530;28;20146;-77
2023/04/15 02:53:00;;;;;;;0.00;0.00;;;6.40;100.00;;;;;;5043270;28;20041;-77
2023/04/15 02:55:27;;;;;;;0.00;0.00;;;6.40;100.00;;;;;;5026935;28;20053;-77
2023/04/15 02:57:55;;;;;;;0.00;0.00;;;6.40;100.00;;;;;;5043306;28;20042;-77
2023/04/15 03:00:24;;;;;;;0.00;0.00;;;6.40;100.00;;;;;;5037081;28;20073;-77
2023/04/15 03:02:55;;;;;;;0.00;0.00;;;6.40;100.00;;;;;;5022553;28;20064;-77
2023/04/15 03:05:25;;;;;;;0.00;0.00;;;6.40;100.00;;;;;;5029469;28;20745;-77
2023/04/15 03:07:52;;;;;;;0.00;0.00;;;6.40;100.00;;;;;;5043971;28;20053;-76
2023/04/15 03:10:19;;;;;;;0.00;0.00;;;6.40;100.00;;;;;;5027836;28;20156;-77
2023/04/15 03:12:46;;;;;;;0.00;0.00;;;6.40;100.00;;;;;;5040991;28;20151;-77
2023/04/15 03:15:13;;;;;;;0.00;0.00;;;6.40;100.00;;;;;;5039718;28;20080;-77
2023/04/15 03:17:40;;;;;;;0.00;0.00;;;6.40;100.00;;;;;;5015919;28;20081;-77
2023/04/15 03:20:08;;;;;;;0.00;0.00;;;6.40;100.00;;;;;;5029378;28;20142;-77
2023/04/15 03:22:35;;;;;;;0.00;0.00;;;6.40;100.00;;;;;;5020339;28;20042;-77
2023/04/15 03:25:02;;;;;;;0.00;0.00;;;6.40;100.00;;;;;;5044704;28;20147;-77
2023/04/15 03:27:28;;;;;;;0.00;0.00;;;6.40;100.00;;;;;;5038008;28;20107;-77
2023/04/15 03:29:55;;;;;;;0.00;0.00;;;6.40;100.00;;;;;;5041064;28;20469;-77
2023/04/15 03:32:22;;;;;;;0.00;0.00;;;6.50;100.00;;;;;;5037360;28;20041;-77
2023/04/15 03:34:49;;;;;;;0.00;0.00;;;6.40;100.00;;;;;;5016597;28;20042;-77
2023/04/15 03:37:16;;;;;;;0.00;0.00;;;6.40;100.00;;;;;;5033296;28;20076;-77
2023/04/15 03:39:43;;;;;;;0.00;0.00;;;6.50;100.00;;;;;;5034053;28;20057;-77
2023/04/15 03:42:09;;;;;;;0.00;0.00;;;6.50;100.00;;;;;;5017359;28;20428;-77
2023/04/15 03:44:37;;;;;;;0.00;0.00;;;6.40;100.00;;;;;;5017641;28;20045;-77
2023/04/15 03:47:04;;;;;;;0.00;0.00;;;6.50;100.00;;;;;;5017490;28;20540;-77
2023/04/15 03:49:31;;;;;;;0.00;0.00;;;6.40;100.00;;;;;;5034808;28;20084;-77
2023/04/15 03:51:58;;;;;;;0.00;0.00;;;6.40;100.00;;;;;;5040686;28;20049;-77
2023/04/15 03:54:25;;;;;;;0.00;0.00;;;6.40;100.00;;;;;;5025379;28;20060;-77
2023/04/15 03:56:52;;;;;;;0.00;0.00;;;6.40;100.00;;;;;;5020580;28;20045;-78
2023/04/15 03:59:19;;;;;;;0.00;0.00;;;6.40;100.00;;;;;;5014793;28;20127;-77
2023/04/15 04:01:46;;;;;;;0.00;0.00;;;6.40;100.00;;;;;;5042336;28;20653;-77
2023/04/15 04:04:13;;;;;;;0.00;0.00;;;6.40;100.00;;;;;;5020898;28;20041;-77
2023/04/15 04:06:39;;;;;;;0.00;0.00;;;6.40;100.00;;;;;;5036147;28;20068;-76
2023/04/15 04:09:06;;;;;;;0.00;0.00;;;6.50;100.00;;;;;;5013217;28;20049;-76
2023/04/15 04:11:33;;;;;;;0.00;0.00;;;6.50;100.00;;;;;;5038367;28;20053;-76
2023/04/15 04:14:00;;;;;;;0.00;0.00;;;6.50;100.00;;;;;;5028806;28;20130;-77
2023/04/15 04:16:27;;;;;;;0.00;0.00;;;6.50;100.00;;;;;;5035542;28;20173;-76
2023/04/15 04:18:54;;;;;;;0.00;0.00;;;6.50;100.00;;;;;;5041085;28;20080;-78
2023/04/15 04:21:21;;;;;;;0.00;0.00;;;6.50;100.00;;;;;;5039093;28;20042;-77
2023/04/15 04:23:47;;;;;;;0.00;0.00;;;6.50;100.00;;;;;;5032542;28;20061;-78
2023/04/15 04:26:15;;;;;;;0.35;0.35;;;6.50;100.00;;;;;;5032739;28;20049;-77
2023/04/15 04:28:41;;;;;;;0.00;0.00;;;6.50;100.00;;;;;;5037577;28;20059;-77
2023/04/15 04:31:08;;;;;;;0.00;0.00;;;6.50;100.00;;;;;;5036054;28;20061;-76
2023/04/15 04:33:35;;;;;;;0.00;0.00;;;6.50;100.00;;;;;;5018715;28;20050;-78
2023/04/15 04:36:02;;;;;;;0.00;0.00;;;6.60;100.00;;;;;;5022552;28;20095;-77
2023/04/15 04:38:29;;;;;;;0.00;0.00;;;6.60;100.00;;;;;;5039808;28;20556;-77
2023/04/15 04:40:59;;;;;;;0.00;0.00;;;6.60;100.00;;;;;;5026327;28;20042;-77
2023/04/15 04:43:26;;;;;;;0.00;0.00;;;6.60;100.00;;;;;;5039610;28;20059;-77
2023/04/15 04:45:53;;;;;;;0.00;0.00;;;6.60;100.00;;;;;;5023155;28;20056;-77
2023/04/15 04:48:20;;;;;;;0.00;0.00;;;6.60;100.00;;;;;;5030027;28;20141;-77
2023/04/15 04:50:47;;;;;;;0.00;0.00;;;6.70;100.00;;;;;;5013332;28;20045;-77
2023/04/15 04:53:14;;;;;;;0.00;0.00;;;6.70;100.00;;;;;;5040949;28;20049;-77
2023/04/15 04:55:41;;;;;;;0.00;0.00;;;6.70;100.00;;;;;;5012533;28;20053;-77
2023/04/15 04:58:08;;;;;;;0.00;0.00;;;6.80;100.00;;;;;;5015720;28;20103;-77
2023/04/15 05:00:36;;;;;;;0.00;0.00;;;6.80;100.00;;;;;;5017346;28;20041;-77
2023/04/15 05:03:03;;;;;;;0.00;0.00;;;6.80;100.00;;;;;;5015597;28;20049;-76
2023/04/15 05:05:31;;;;;;;0.10;0.10;;;6.80;100.00;;;;;;5033040;28;20164;-77
2023/04/15 05:07:57;;;;;;;0.00;0.00;;;6.80;100.00;;;;;;5032637;28;20045;-76
2023/04/15 05:10:25;;;;;;;0.00;0.00;;;6.90;100.00;;;;;;5032665;28;20046;-76
2023/04/15 05:12:51;;;;;;;0.00;0.00;;;6.90;100.00;;;;;;5019199;28;20540;-76
2023/04/15 05:15:18;;;;;;;0.00;0.00;;;6.80;100.00;;;;;;5041824;28;20052;-76
2023/04/15 05:17:45;;;;;;;0.00;0.00;;;6.90;100.00;;;;;;5031586;28;20041;-77
2023/04/15 05:20:12;;;;;;;0.00;0.00;;;6.90;100.00;;;;;;5032236;28;20042;-76
2023/04/15 05:22:39;;;;;;;0.00;0.00;;;6.90;100.00;;;;;;5028529;28;20107;-76
2023/04/15 05:25:07;;;;;;;0.00;0.00;;;6.90;100.00;;;;;;5025003;28;20041;-77
2023/04/15 05:27:34;;;;;;;0.00;0.00;;;6.90;100.00;;;;;;5036935;28;20550;-77
2023/04/15 05:30:01;;;;;;;0.00;0.00;;;6.90;100.00;;;;;;5033105;28;20124;-77
2023/04/15 05:32:28;;;;;;;0.00;0.00;;;7.00;100.00;;;;;;5036293;28;20049;-77
2023/04/15 05:34:55;;;;;;;0.00;0.00;;;7.00;100.00;;;;;;5032809;28;20138;-77
2023/04/15 05:37:22;;;;;;;0.00;0.00;;;7.00;100.00;;;;;;5037005;28;20041;-77
2023/04/15 05:39:49;;;;;;;0.00;0.00;;;7.00;100.00;;;;;;5036565;28;20128;-78
2023/04/15 05:42:15;;;;;;;0.00;0.00;;;7.10;100.00;;;;;;5020701;28;20437;-78
2023/04/15 05:44:42;;;;;;;0.00;0.00;;;7.10;100.00;;;;;;5034212;28;20078;-77
2023/04/15 05:47:09;;;;;;;0.00;0.00;;;7.20;100.00;;;;;;5034536;28;20056;-78
2023/04/15 05:49:36;;;;;;;0.00;0.00;;;7.20;100.00;;;;;;5032690;28;20053;-78
2023/04/15 05:52:03;;;;;;;0.00;0.00;;;7.30;100.00;;;;;;5024139;28;20751;-79
2023/04/15 05:54:30;;;;;;;0.52;0.52;;;7.30;100.00;;;;;;5015340;28;20616;-78
2023/04/15 05:56:59;;;;;;;0.00;0.00;;;7.40;100.00;;;;;;5032889;28;20050;-79
2023/04/15 05:59:27;;;;;;;0.00;0.00;;;7.40;100.00;;;;;;5035010;28;20050;-79
2023/04/15 06:01:54;;;;;;;0.00;0.00;;;7.50;100.00;;;;;;5027134;28;20056;-78
2023/04/15 06:04:21;;;;;;;0.00;0.00;;;7.60;100.00;;;;;;5030120;28;20045;-77
2023/04/15 06:06:48;;;;;;;0.00;0.00;;;7.70;100.00;;;;;;5035345;28;20106;-77
2023/04/15 06:09:15;;;;;;;0.00;0.00;;;7.80;100.00;;;;;;5037780;28;20536;-83
2023/04/15 06:11:42;;;;;;;0.00;0.00;;;7.90;100.00;;;;;;5025682;28;20044;-82
2023/04/15 06:14:09;;;;;;;0.00;0.00;;;7.90;100.00;;;;;;5024040;28;20085;-80
2023/04/15 06:16:36;;;;;;;0.00;0.00;;;8.10;100.00;;;;;;5042397;28;20748;-80
2023/04/15 06:19:03;;;;;;;0.00;0.00;;;8.10;100.00;;;;;;5020281;28;20663;-85
2023/04/15 06:21:30;;;;;;;0.00;0.00;;;8.30;100.00;;;;;;5039767;28;20130;-82
2023/04/15 06:24:02;;;;;;;0.20;0.20;;;8.40;100.00;;;;;;5035603;28;20049;-80
2023/04/15 06:26:30;;;;;;;0.00;0.00;;;8.50;100.00;;;;;;5018868;28;20403;-81
2023/04/15 06:28:56;;;;;;;0.00;0.00;;;8.70;100.00;;;;;;5036888;28;20055;-81
2023/04/15 06:31:23;;;;;;;0.00;0.00;;;9.00;100.00;;;;;;5021518;28;20136;-87
2023/04/15 06:33:50;;;;;;;0.00;0.00;;;9.20;100.00;;;;;;5029657;28;20464;-82
2023/04/15 06:36:18;;;;;;;0.00;0.00;;;9.50;100.00;;;;;;5020632;28;20045;-82
2023/04/15 06:38:47;;;;;;;0.00;0.00;;;9.70;100.00;;;;;;5024721;28;20045;-80
2023/04/15 06:43:57;;;;;;;0.00;0.00;;;9.90;100.00;;;;;;5021868;28;20046;-76
2023/04/15 06:46:24;;;;;;;0.00;0.00;;;10.00;98.30;;;;;;5029114;28;20739;-77
2023/04/15 06:48:51;;;;;;;0.00;0.00;;;10.30;96.70;;;;;;5023176;28;20104;-81
2023/04/15 06:51:18;;;;;;;0.00;0.00;;;10.40;95.70;;;;;;5021508;28;20057;-76
2023/04/15 06:53:45;;;;;;;0.00;0.00;;;10.60;95.50;;;;;;5026057;28;20053;-77
2023/04/15 06:56:11;;;;;;;0.00;0.00;;;10.50;94.50;;;;;;5022147;28;20049;-78
2023/04/15 06:58:38;;;;;;;0.10;0.10;;;10.50;94.10;;;;;;5023628;28;20042;-78
2023/04/15 07:01:05;;;;;;;0.00;0.00;;;10.70;94.10;;;;;;5025959;28;20054;-78
2023/04/15 07:03:32;;;;;;;0.00;0.00;;;10.90;93.90;;;;;;5024485;28;20544;-78
2023/04/15 07:06:00;;;;;;;0.00;0.00;;;11.10;92.50;;;;;;5022963;28;20103;-78
2023/04/15 07:08:27;;;;;;;0.00;0.00;;;11.10;92.10;;;;;;5022279;28;20471;-78
2023/04/15 07:10:54;;;;;;;1.35;0.55;;;11.10;92.10;;;;;;5026753;28;20041;-77
2023/04/15 07:13:21;;;;;;;0.00;0.00;;;11.00;92.20;;;;;;5016200;28;20132;-76
2023/04/15 07:15:48;;;;;;;0.00;0.00;;;11.00;92.50;;;;;;5017867;28;20045;-76
2023/04/15 07:18:14;;;;;;;0.00;0.00;;;11.00;91.60;;;;;;5019959;28;20061;-75
2023/04/15 07:20:42;;;;;;;0.00;0.00;;;11.00;93.00;;;;;;5049233;28;20045;-75
2023/04/15 07:23:09;;;;;;;0.55;0.55;;;10.90;91.70;;;;;;5019501;28;20056;-75
2023/04/15 07:25:36;;;;;;;0.00;0.00;;;10.90;92.10;;;;;;5018681;28;20784;-77
2023/04/15 07:28:03;;;;;;;0.10;0.10;;;11.00;92.40;;;;;;5021662;28;20060;-76
2023/04/15 07:30:30;;;;;;;0.00;0.00;;;11.20;91.20;;;;;;5024049;28;20115;-76
2023/04/15 07:32:58;;;;;;;0.00;0.00;;;11.20;91.00;;;;;;5024907;28;20080;-76
2023/04/15 07:35:25;;;;;;;0.00;0.00;;;11.20;91.30;;;;;;5025179;28;20080;-76
2023/04/15 07:37:52;;;;;;;0.85;0.85;;;11.30;92.20;;;;;;5027154;28;20065;-78
2023/04/15 07:40:19;;;;;;;0.00;0.00;;;11.20;91.90;;;;;;5025662;28;20057;-77
2023/04/15 07:42:47;;;;;;;0.00;0.00;;;11.20;91.10;;;;;;5023741;28;20053;-77
2023/04/15 07:45:15;;;;;;;0.00;0.00;;;11.30;91.90;;;;;;5024363;28;20057;-76
2023/04/15 07:47:41;;;;;;;4.50;0.68;;;11.40;91.50;;;;;;5023103;28;20054;-77
2023/04/15 07:50:12;;;;;;;0.00;0.00;;;11.60;91.60;;;;;;5019728;28;20041;-76
2023/04/15 07:52:39;;;;;;;0.40;0.38;;;11.60;91.00;;;;;;5024508;28;20084;-77
2023/04/15 07:55:10;;;;;;;0.00;0.00;;;11.80;91.00;;;;;;5028183;28;20056;-76
2023/04/15 07:57:37;;;;;;;0.00;0.00;;;12.20;91.60;;;;;;5031788;28;20177;-76
2023/04/15 08:00:06;;;;;;;0.00;0.00;;;12.30;90.10;;;;;;5023995;28;20064;-76
2023/04/15 08:05:38;;;;;;;0.00;0.00;;;12.80;87.70;;;;;;4989718;28;20078;-80
2023/04/15 08:08:05;;;;;;;0.00;0.00;;;13.00;86.50;;;;;;5002736;28;20588;-80
2023/04/15 08:10:32;;;;;;;0.00;0.00;;;13.10;86.00;;;;;;5012049;28;20046;-80
2023/04/15 08:12:59;;;;;;;0.00;0.00;;;13.40;83.80;;;;;;4995655;28;20479;-80
2023/04/15 08:15:27;;;;;;;0.00;0.00;;;13.40;85.70;;;;;;5006932;28;20060;-80
2023/04/15 08:17:54;;;;;;;0.00;0.00;;;14.10;83.40;;;;;;4994301;28;20060;-80
2023/04/15 08:20:24;;;;;;;0.10;0.10;;;15.00;81.40;;;;;;4992181;28;20096;-80
2023/04/15 08:22:51;;;;;;;0.00;0.00;;;15.60;78.50;;;;;;4975055;28;20509;-80
2023/04/15 08:25:21;;;;;;;0.63;0.63;;;15.80;77.20;;;;;;4995738;28;20060;-80
2023/04/15 08:27:48;;;;;;;0.43;0.43;;;16.30;76.10;;;;;;4983220;28;20503;-79
2023/04/15 08:30:15;;;;;;;0.00;0.00;;;16.00;75.30;;;;;;4967569;28;20061;-80
2023/04/15 08:32:45;;;;;;;0.00;0.00;;;16.30;74.70;;;;;;5000391;28;20065;-79
2023/04/15 08:35:13;;;;;;;0.65;0.32;;;15.80;75.40;;;;;;4978593;28;20056;-80
2023/04/15 08:37:39;;;;;;;0.03;0.03;;;15.90;76.10;;;;;;5001880;28;20628;-79
2023/04/15 08:40:08;;;;;;;0.00;0.00;;;16.50;74.90;;;;;;4988498;28;20407;-80
2023/04/15 08:42:44;;;;;;;0.10;0.10;;;16.30;72.80;;;;;;4998679;28;20050;-79
2023/04/15 08:45:11;;;;;;;0.30;0.30;;;15.90;73.20;;;;;;4996583;28;20053;-79
2023/04/15 08:47:39;;;;;;;0.10;0.10;;;15.50;73.00;;;;;;4988746;28;20117;-80
2023/04/15 08:50:08;;;;;;;0.00;0.00;;;15.20;77.50;;;;;;5001343;28;20049;-79
2023/04/15 08:52:35;;;;;;;0.88;0.63;;;15.60;76.80;;;;;;4992746;28;20054;-79
2023/04/15 08:55:04;;;;;;;0.00;0.00;;;15.30;74.90;;;;;;4984413;28;20435;-80
2023/04/15 08:57:32;;;;;;;0.10;0.10;;;15.10;74.90;;;;;;4978634;28;20050;-80
2023/04/15 09:00:02;;;;;;;0.10;0.10;;;14.80;77.80;;;;;;5000640;28;20062;-79
2023/04/15 09:02:31;;;;;;;0.00;0.00;;;14.70;77.50;;;;;;5001557;28;20847;-79
2023/04/15 09:04:58;;;;;;;0.00;0.00;;;14.70;77.70;;;;;;4993365;28;20112;-79
2023/04/15 09:07:25;;;;;;;0.00;0.00;;;14.90;77.20;;;;;;4973537;28;20400;-80
2023/04/15 09:09:53;;;;;;;0.00;0.00;;;15.00;78.40;;;;;;4997357;28;20145;-79
2023/04/15 09:12:19;;;;;;;0.00;0.00;;;14.90;77.40;;;;;;5013729;28;20703;-79
2023/04/15 09:14:48;;;;;;;0.08;0.08;;;15.10;77.30;;;;;;4994723;28;20050;-79
2023/04/15 09:17:19;;;;;;;0.00;0.00;;;15.60;75.40;;;;;;5001843;28;20061;-79
2023/04/15 09:19:47;;;;;;;0.00;0.00;;;15.50;76.40;;;;;;4986082;28;20593;-79
2023/04/15 09:22:14;;;;;;;0.00;0.00;;;15.80;73.30;;;;;;5002353;28;20348;-80
2023/04/15 09:24:42;;;;;;;0.00;0.00;;;15.80;73.90;;;;;;5001773;28;20061;-80
2023/04/15 09:27:09;;;;;;;0.10;0.10;;;15.50;72.80;;;;;;4995051;28;20760;-80
2023/04/15 09:29:36;;;;;;;0.10;0.10;;;15.20;73.00;;;;;;4987620;28;20054;-80
2023/04/15 09:32:13;;;;;;;0.00;0.00;;;14.70;76.10;;;;;;4998722;28;20714;-80
2023/04/15 09:34:40;;;;;;;0.00;0.00;;;14.90;74.00;;;;;;5004651;28;20128;-80
2023/04/15 09:37:09;;;;;;;0.00;0.00;;;14.80;74.30;;;;;;4999608;28;20046;-79
2023/04/15 09:39:47;;;;;;;0.00;0.00;;;14.70;76.10;;;;;;4995796;28;20519;-79
2023/04/15 09:42:14;;;;;;;0.00;0.00;;;14.50;74.10;;;;;;4994533;28;20126;-80
2023/04/15 09:44:41;;;;;;;0.00;0.00;;;14.40;76.20;;;;;;4998087;28;20053;-80
2023/04/15 09:47:08;;;;;;;0.00;0.00;;;14.40;76.30;;;;;;5213164;22;20913;-80
2023/04/15 09:49:37;;;;;;;0.00;0.00;;;14.20;76.90;;;;;;5041443;28;20060;-80
2023/04/15 09:52:04;;;;;;;0.10;0.10;;;14.00;76.70;;;;;;5020807;28;20413;-79
2023/04/15 09:54:37;;;;;;;0.40;0.40;;;14.00;77.60;;;;;;5028216;28;20068;-79
2023/04/15 09:57:06;;;;;;;0.00;0.00;;;13.80;77.50;;;;;;5036672;28;20044;-80
2023/04/15 09:59:36;;;;;;;0.00;0.00;;;13.70;78.10;;;;;;5041791;28;20057;-80
2023/04/15 10:02:06;;;;;;;0.10;0.10;;;13.60;77.80;;;;;;5040256;28;20050;-79
2023/04/15 10:04:40;;;;;;;0.00;0.00;;;13.60;78.60;;;;;;5022910;28;20444;-79
2023/04/15 10:07:11;;;;;;;0.00;0.00;;;13.50;78.40;;;;;;5019502;28;20489;-80
2023/04/15 10:09:39;;;;;;;0.00;0.00;;;13.50;79.60;;;;;;5029226;28;20088;-79
2023/04/15 10:12:06;;;;;;;0.10;0.10;;;13.70;78.50;;;;;;5057934;28;20048;-80
2023/04/15 10:14:35;;;;;;;0.43;0.43;;;13.70;76.90;;;;;;5041429;28;20103;-80
2023/04/15 10:17:04;;;;;;;0.00;0.00;;;13.80;75.90;;;;;;5033190;28;20149;-80
2023/04/15 10:19:35;;;;;;;0.00;0.00;;;13.70;75.70;;;;;;5026048;28;20055;-78
2023/04/15 10:22:02;;;;;;;0.00;0.00;;;13.50;75.70;;;;;;5012666;28;20553;-79
2023/04/15 10:24:32;;;;;;;0.00;0.00;;;13.50;76.30;;;;;;5037138;28;20060;-80
2023/04/15 10:27:02;;;;;;;0.10;0.10;;;13.40;75.50;;;;;;5029925;28;20053;-79
2023/04/15 10:29:29;;;;;;;0.00;0.00;;;13.20;75.00;;;;;;5020533;28;20469;-79
2023/04/15 10:31:58;;;;;;;0.00;0.00;;;13.20;76.90;;;;;;5032079;28;20320;-79
2023/04/15 10:34:25;;;;;;;0.00;0.00;;;13.20;76.80;;;;;;5029553;28;20129;-79
2023/04/15 10:37:00;;;;;;;0.00;0.00;;;13.20;76.40;;;;;;5042133;28;20048;-80
2023/04/15 10:39:33;;;;;;;0.00;0.00;;;13.30;77.60;;;;;;5031379;28;20049;-79
2023/04/15 10:42:09;;;;;;;0.00;0.00;;;13.40;76.80;;;;;;5024296;28;20060;-80
2023/04/15 10:44:42;;;;;;;0.00;0.00;;;13.40;75.50;;;;;;5018510;28;20092;-79
2023/04/15 10:47:17;;;;;;;0.00;0.00;;;13.50;73.90;;;;;;5014064;28;20061;-80
2023/04/15 10:52:40;;;;;;;0.00;0.00;;;14.00;73.10;;;;;;5019504;28;20076;-77
2023/04/15 10:55:25;;;;;;;0.00;0.00;;;14.60;73.40;;;;;;5015532;28;20049;-78
2023/04/15 10:58:00;;;;;;;0.00;0.00;;;16.00;66.50;;;;;;5026778;28;20045;-76
2023/04/15 11:00:31;;;;;;;0.00;0.00;;;15.80;67.90;;;;;;5014806;28;20054;-77
2023/04/15 11:03:08;;;;;;;0.00;0.00;;;16.20;66.90;;;;;;5025443;28;20079;-77
2023/04/15 11:05:41;;;;;;;0.00;0.00;;;16.10;65.00;;;;;;5019836;28;20053;-77
2023/04/15 11:08:12;;;;;;;0.00;0.00;;;15.70;65.90;;;;;;5005260;28;20081;-77
2023/04/15 11:10:39;;;;;;;0.00;0.00;;;15.90;66.70;;;;;;5019270;28;20782;-77
2023/04/15 11:13:16;;;;;;;0.00;0.00;;;15.90;66.00;;;;;;5022216;28;20057;-77
2023/04/15 11:15:44;;;;;;;0.15;0.15;;;15.90;66.60;;;;;;5026258;28;20049;-78
2023/04/15 11:18:17;;;;;;;0.10;0.10;;;15.60;66.30;;;;;;5023206;28;20080;-79
2023/04/15 11:20:49;;;;;;;0.00;0.00;;;15.50;67.40;;;;;;5022152;28;20045;-78
2023/04/15 11:23:35;;;;;;;0.00;0.00;;;15.90;66.00;;;;;;5010523;28;20402;-78
2023/04/15 11:26:05;;;;;;;0.00;0.00;;;15.80;65.70;;;;;;5016756;28;20136;-79
2023/04/15 11:28:32;;;;;;;0.00;0.00;;;15.30;67.30;;;;;;5016735;28;20046;-82
2023/04/15 11:31:12;;;;;;;0.00;0.00;;;15.30;67.80;;;;;;5014619;28;20153;-83
2023/04/15 11:33:52;;;;;;;0.00;0.00;;;15.90;66.50;;;;;;5023979;28;20584;-81
2023/04/15 11:36:19;;;;;;;0.00;0.00;;;16.30;65.10;;;;;;5028133;28;20099;-80
2023/04/15 11:38:46;;;;;;;0.10;0.10;;;16.50;65.30;;;;;;5023377;28;20046;-80
2023/04/15 11:41:13;;;;;;;0.00;0.00;;;16.30;63.30;;;;;;5015750;28;20081;-80
2023/04/15 11:43:40;;;;;;;0.00;0.00;;;16.00;64.90;;;;;;5023429;28;20049;-79
2023/04/15 11:46:07;;;;;;;0.00;0.00;;;15.60;65.60;;;;;;5020911;28;20379;-80
2023/04/15 11:48:35;;;;;;;0.00;0.00;;;15.40;65.50;;;;;;5022750;28;20089;-81
2023/04/15 11:51:06;;;;;;;0.00;0.00;;;15.30;65.10;;;;;;5006240;28;20188;-82
2023/04/15 11:53:40;;;;;;;0.00;0.00;;;15.20;66.50;;;;;;5025287;28;20061;-79
2023/04/15 11:56:08;;;;;;;0.25;0.25;;;15.00;67.40;;;;;;5012987;28;20049;-81
2023/04/15 11:58:39;;;;;;;0.00;0.00;;;14.80;66.10;;;;;;5021205;28;20057;-78
2023/04/15 12:01:46;;;;;;;0.00;0.00;;;14.60;67.90;;;;;;5017779;28;20561;-78
2023/04/15 12:04:21;;;;;;;0.00;0.00;;;14.90;68.10;;;;;;5001339;28;20042;-76
2023/04/15 12:09:57;;;;;;;0.00;0.00;;;14.90;66.80;;;;;;5028306;28;20065;-79
2023/04/15 12:12:27;;;;;;;0.00;0.00;;;14.90;67.90;;;;;;5040539;28;20405;-78
2023/04/15 12:14:56;;;;;;;0.10;0.10;;;15.00;67.40;;;;;;5032767;28;20057;-78
2023/04/15 12:17:23;;;;;;;0.17;0.17;;;15.20;66.30;;;;;;5042811;28;20048;-81
2023/04/15 12:19:55;;;;;;;0.00;0.00;;;15.30;67.30;;;;;;5043146;28;20045;-81
2023/04/15 12:22:24;;;;;;;0.00;0.00;;;15.70;67.80;;;;;;5032617;28;20041;-81
2023/04/15 12:24:56;;;;;;;0.00;0.00;;;15.80;67.00;;;;;;5028853;28;20053;-81
2023/04/15 12:27:26;;;;;;;0.00;0.00;;;15.50;66.30;;;;;;5039702;28;20060;-83
2023/04/15 12:30:04;;;;;;;0.00;0.00;;;15.10;67.60;;;;;;5040019;28;20468;-82
2023/04/15 12:32:34;;;;;;;0.00;0.00;;;14.80;67.60;;;;;;5037514;28;20049;-83
2023/04/15 12:35:01;;;;;;;0.00;0.00;;;14.60;68.10;;;;;;5033355;28;20149;-83
2023/04/15 12:37:28;;;;;;;0.00;0.00;;;14.40;68.20;;;;;;5041214;28;20099;-83
2023/04/15 12:39:55;;;;;;;1.13;0.25;;;14.50;69.70;;;;;;5039164;28;20059;-83
2023/04/15 12:42:22;;;;;;;0.00;0.00;;;14.60;69.90;;;;;;5044182;22;20056;-79
2023/04/15 12:44:48;;;;;;;22.23;14.00;;;14.70;68.70;;;;;;5026867;28;20049;-77
2023/04/15 12:47:15;;;;;;;28.50;14.45;;;14.50;70.60;;;;;;5038719;28;20052;-78
2023/04/15 12:49:42;;;;;;;22.08;14.13;;;14.50;72.00;;;;;;5025953;28;20757;-78
2023/04/15 12:52:09;;;;;;;31.38;14.20;;;14.30;70.60;;;;;;5020818;28;20049;-78
2023/04/15 12:54:36;;;;;;;22.95;13.13;;;14.20;70.50;;;;;;5027676;28;20788;-78
2023/04/15 12:57:03;;;;;;;23.88;13.85;;;14.10;71.30;;;;;;5021400;28;20808;-78
2023/04/15 12:59:33;;;;;;;24.63;15.13;;;14.10;73.70;;;;;;5026615;28;20080;-78
2023/04/15 13:02:01;;;;;;;24.60;13.65;;;14.20;73.90;;;;;;5027863;28;20052;-78